Time;durP1;ratioP1;P1;durP2;ratioP2;P2;SDS_P1;SDS_P2;PMS_P1;PMS_P2;Temp;Humidity;BMP_temperature;BMP_pressure;BME280_temperature;BME280_humidity;BME280_pressure;Samples;Min_cycle;Max_cycle;Signal;HPM_P1;HPM_P2
2023/03/27 00:02:13;;;;;;;1.20;0.60;;;6.10;83.10;;;;;;5033096;28;20021;-75
2023/03/27 00:04:40;;;;;;;1.48;0.68;;;6.10;83.30;;;;;;5033083;28;20536;-76
2023/03/27 00:07:06;;;;;;;3.30;0.50;;;6.10;83.50;;;;;;5033072;28;20022;-75
2023/03/27 00:09:32;;;;;;;1.70;0.50;;;6.00;83.20;;;;;;5032959;28;20510;-75
2023/03/27 00:11:59;;;;;;;1.85;0.50;;;5.90;83.30;;;;;;5032819;28;20021;-75
2023/03/27 00:14:25;;;;;;;3.17;0.73;;;5.80;83.70;;;;;;5032881;28;20087;-75
2023/03/27 00:16:51;;;;;;;0.98;0.50;;;5.90;83.90;;;;;;5032882;28;20022;-74
2023/03/27 00:19:17;;;;;;;1.90;0.63;;;5.80;84.60;;;;;;5032912;28;20021;-74
2023/03/27 00:21:43;;;;;;;0.80;0.40;;;5.80;83.80;;;;;;5033200;28;20414;-73
2023/03/27 00:24:09;;;;;;;1.35;0.35;;;5.80;83.30;;;;;;5034832;28;20083;-73
2023/03/27 00:26:39;;;;;;;1.27;0.60;;;5.70;83.60;;;;;;5036993;28;20148;-73
2023/03/27 00:29:05;;;;;;;3.53;0.80;;;5.70;84.00;;;;;;5036979;28;20024;-74
2023/03/27 00:31:31;;;;;;;1.17;0.30;;;5.70;83.80;;;;;;5036783;28;20037;-74
2023/03/27 00:33:56;;;;;;;0.65;0.40;;;5.70;83.30;;;;;;5036811;28;20048;-74
2023/03/27 00:36:22;;;;;;;0.38;0.25;;;5.70;83.30;;;;;;5036731;28;20414;-74
2023/03/27 00:38:51;;;;;;;1.23;0.20;;;5.70;84.20;;;;;;5036596;28;20064;-73
2023/03/27 00:41:21;;;;;;;0.57;0.30;;;5.60;84.10;;;;;;5036653;28;20113;-73
2023/03/27 00:43:48;;;;;;;0.28;0.25;;;5.60;84.80;;;;;;5036569;28;20025;-74
2023/03/27 00:46:26;;;;;;;0.22;0.10;;;5.60;84.40;;;;;;5036598;28;20068;-74
2023/03/27 00:48:54;;;;;;;0.70;0.17;;;5.60;84.20;;;;;;5036731;28;20466;-75
2023/03/27 00:51:22;;;;;;;0.20;0.13;;;5.60;84.20;;;;;;5036641;28;20029;-74
2023/03/27 00:53:48;;;;;;;0.98;0.40;;;5.70;83.80;;;;;;5036565;28;20022;-73
2023/03/27 00:56:15;;;;;;;0.25;0.25;;;5.70;83.80;;;;;;5036400;28;20064;-74
2023/03/27 00:58:51;;;;;;;0.20;0.20;;;5.60;84.00;;;;;;5036438;28;20025;-74
2023/03/27 01:01:18;;;;;;;0.10;0.10;;;5.70;84.30;;;;;;5036460;28;20450;-74
2023/03/27 01:03:46;;;;;;;0.30;0.20;;;5.60;84.10;;;;;;5035111;28;20358;-74
2023/03/27 01:06:15;;;;;;;0.30;0.30;;;5.60;84.40;;;;;;5036295;28;20017;-75
2023/03/27 01:08:43;;;;;;;1.52;0.30;;;5.60;84.50;;;;;;5036092;28;20502;-74
2023/03/27 01:11:40;;;;;;;0.82;0.22;;;5.60;84.80;;;;;;5035796;28;20037;-75
2023/03/27 01:14:29;;;;;;;0.28;0.20;;;5.50;85.00;;;;;;5036216;28;20044;-74
2023/03/27 01:17:18;;;;;;;0.43;0.30;;;5.60;85.00;;;;;;5036072;28;20025;-74
2023/03/27 01:19:50;;;;;;;0.52;0.40;;;5.60;85.00;;;;;;5036060;28;20027;-74
2023/03/27 01:22:55;;;;;;;1.52;1.20;;;5.50;85.00;;;;;;5036138;28;20013;-75
2023/03/27 01:25:52;;;;;;;0.35;0.20;;;5.50;85.70;;;;;;5035971;28;20026;-75
2023/03/27 01:28:32;;;;;;;0.20;0.20;;;5.50;85.50;;;;;;5034665;28;20060;-75
2023/03/27 01:31:09;;;;;;;0.20;0.20;;;5.60;85.40;;;;;;5035821;28;20021;-74
2023/03/27 01:33:53;;;;;;;0.20;0.20;;;5.60;85.00;;;;;;5035790;28;20359;-75
2023/03/27 01:36:33;;;;;;;0.32;0.32;;;5.50;85.10;;;;;;5035666;28;20021;-75
2023/03/27 01:39:36;;;;;;;0.65;0.10;;;5.60;84.90;;;;;;5035660;28;20065;-76
2023/03/27 01:42:19;;;;;;;0.30;0.30;;;5.50;85.10;;;;;;5035656;28;20083;-74
2023/03/27 01:45:07;;;;;;;0.55;0.28;;;5.50;84.70;;;;;;5035751;28;20049;-74
2023/03/27 01:47:39;;;;;;;0.77;0.30;;;5.50;84.90;;;;;;5035461;28;20025;-74
2023/03/27 01:50:40;;;;;;;0.10;0.10;;;5.50;84.90;;;;;;5035551;28;20021;-74
2023/03/27 01:53:14;;;;;;;0.20;0.20;;;5.50;84.80;;;;;;5035415;28;20029;-74
2023/03/27 01:55:44;;;;;;;0.30;0.20;;;5.50;84.60;;;;;;5035425;28;20026;-74
2023/03/27 01:58:15;;;;;;;0.20;0.20;;;5.50;84.40;;;;;;5035427;28;20030;-73
2023/03/27 02:00:44;;;;;;;0.20;0.20;;;5.50;84.50;;;;;;5035313;28;20134;-74
2023/03/27 02:03:32;;;;;;;0.10;0.10;;;5.50;84.70;;;;;;5035410;28;20025;-74
2023/03/27 02:06:05;;;;;;;0.15;0.15;;;5.50;84.80;;;;;;5035295;28;20029;-74
2023/03/27 02:08:44;;;;;;;1.05;0.13;;;5.40;85.30;;;;;;5035380;28;20025;-74
2023/03/27 02:11:10;;;;;;;0.95;0.10;;;5.30;84.80;;;;;;5035254;28;20022;-74
2023/03/27 02:13:52;;;;;;;0.65;0.10;;;5.20;84.60;;;;;;5035294;28;20026;-74
2023/03/27 02:16:23;;;;;;;0.22;0.10;;;5.30;84.70;;;;;;5035186;28;20493;-74
2023/03/27 02:18:55;;;;;;;0.10;0.10;;;5.20;85.20;;;;;;5035164;28;20037;-74
2023/03/27 02:21:22;;;;;;;0.15;0.15;;;5.20;85.60;;;;;;5035190;28;20062;-74
2023/03/27 02:23:48;;;;;;;1.17;0.20;;;5.20;86.40;;;;;;5034981;28;20068;-74
2023/03/27 02:26:14;;;;;;;0.10;0.10;;;5.20;87.20;;;;;;5033912;28;20482;-75
2023/03/27 02:28:54;;;;;;;0.43;0.43;;;5.20;86.30;;;;;;5035581;28;20029;-75
2023/03/27 02:31:41;;;;;;;0.90;0.30;;;5.20;86.60;;;;;;5043352;28;20045;-74
2023/03/27 02:34:23;;;;;;;0.43;0.20;;;5.00;86.60;;;;;;5043642;28;20087;-73
2023/03/27 02:36:55;;;;;;;0.38;0.38;;;4.80;86.80;;;;;;5034957;28;20029;-74
2023/03/27 02:39:42;;;;;;;0.30;0.22;;;4.80;87.40;;;;;;5034795;28;20510;-75
2023/03/27 02:42:44;;;;;;;0.10;0.10;;;4.70;87.10;;;;;;5034760;28;20107;-75
2023/03/27 02:45:15;;;;;;;0.90;0.25;;;4.70;87.40;;;;;;5034435;28;20451;-74
2023/03/27 02:47:53;;;;;;;1.05;0.30;;;4.60;87.60;;;;;;5033971;28;20162;-76
2023/03/27 02:50:24;;;;;;;0.20;0.20;;;4.50;87.90;;;;;;5034623;28;20028;-75
2023/03/27 02:52:53;;;;;;;0.30;0.30;;;4.50;88.10;;;;;;5034507;28;20025;-75
2023/03/27 02:55:28;;;;;;;0.55;0.32;;;4.50;88.20;;;;;;5034523;28;20062;-74
2023/03/27 02:58:01;;;;;;;0.10;0.10;;;4.60;88.40;;;;;;5034411;28;20083;-74
2023/03/27 03:00:30;;;;;;;1.20;0.20;;;4.60;88.30;;;;;;5034317;28;20075;-74
2023/03/27 03:03:09;;;;;;;0.57;0.40;;;4.60;88.30;;;;;;5034182;28;20508;-74
2023/03/27 03:05:39;;;;;;;0.20;0.20;;;4.60;88.20;;;;;;5034306;28;20109;-75
2023/03/27 03:08:09;;;;;;;0.20;0.20;;;4.60;88.50;;;;;;5034663;28;20014;-75
2023/03/27 03:10:41;;;;;;;0.10;0.10;;;4.50;88.70;;;;;;5034236;28;20406;-75
2023/03/27 03:13:07;;;;;;;0.20;0.20;;;4.50;88.70;;;;;;5034145;28;20033;-75
2023/03/27 03:15:33;;;;;;;0.38;0.30;;;4.50;88.10;;;;;;5033969;28;20474;-75
2023/03/27 03:17:58;;;;;;;0.30;0.30;;;4.40;88.00;;;;;;5033904;28;20044;-75
2023/03/27 03:20:28;;;;;;;0.40;0.40;;;4.50;88.50;;;;;;5032699;28;20445;-74
2023/03/27 03:22:56;;;;;;;1.98;1.10;;;4.50;88.40;;;;;;5033773;28;20045;-74
2023/03/27 03:25:21;;;;;;;1.67;1.55;;;4.50;88.00;;;;;;5033888;28;20095;-74
2023/03/27 03:27:47;;;;;;;3.75;2.00;;;4.30;86.00;;;;;;5033866;28;20490;-74
2023/03/27 03:30:13;;;;;;;4.53;2.00;;;4.20;86.10;;;;;;5033790;28;20131;-74
2023/03/27 03:32:38;;;;;;;3.00;2.30;;;4.20;85.40;;;;;;5033554;28;20120;-75
2023/03/27 03:35:05;;;;;;;4.82;2.50;;;4.10;85.70;;;;;;5033443;28;20025;-75
2023/03/27 03:37:37;;;;;;;6.70;3.33;;;4.10;85.10;;;;;;5033437;28;20504;-76
2023/03/27 03:40:10;;;;;;;6.90;3.20;;;4.00;84.30;;;;;;5032258;28;20037;-74
2023/03/27 03:42:36;;;;;;;4.63;3.13;;;3.80;85.20;;;;;;5033305;28;20079;-76
2023/03/27 03:45:02;;;;;;;8.63;3.88;;;3.80;85.80;;;;;;5033081;28;20025;-74
2023/03/27 03:47:28;;;;;;;4.20;3.17;;;3.80;85.40;;;;;;5033302;28;20021;-74
2023/03/27 03:49:54;;;;;;;7.45;3.67;;;3.80;86.10;;;;;;5033189;28;20025;-73
2023/03/27 03:52:19;;;;;;;5.28;3.40;;;3.80;86.60;;;;;;5033129;28;20124;-73
2023/03/27 03:54:45;;;;;;;5.75;3.60;;;3.80;86.20;;;;;;5033133;28;20028;-73
2023/03/27 03:57:11;;;;;;;8.57;4.22;;;3.80;86.40;;;;;;5032797;28;20112;-74
2023/03/27 03:59:37;;;;;;;5.50;3.83;;;3.80;86.20;;;;;;5032411;28;20474;-73
2023/03/27 04:02:03;;;;;;;6.72;4.03;;;3.80;86.20;;;;;;5032899;28;20021;-74
2023/03/27 04:04:30;;;;;;;6.50;4.38;;;3.80;86.30;;;;;;5033085;28;20026;-74
2023/03/27 04:06:57;;;;;;;9.40;4.78;;;3.70;86.70;;;;;;5031724;28;20021;-74
2023/03/27 04:09:22;;;;;;;6.32;4.15;;;3.70;87.00;;;;;;5033150;28;20021;-73
2023/03/27 04:11:48;;;;;;;8.65;4.70;;;3.70;86.40;;;;;;5032654;28;20033;-74
2023/03/27 04:14:13;;;;;;;9.10;5.10;;;3.60;85.60;;;;;;5032953;28;20059;-74
2023/03/27 04:16:39;;;;;;;11.93;4.90;;;3.60;86.00;;;;;;5032816;28;20078;-74
2023/03/27 04:19:04;;;;;;;12.52;5.40;;;3.60;85.50;;;;;;5032942;28;20053;-73
2023/03/27 04:21:30;;;;;;;10.73;5.00;;;3.50;86.90;;;;;;5031620;28;20370;-74
2023/03/27 04:24:01;;;;;;;9.25;4.43;;;3.50;86.00;;;;;;5032825;28;20018;-74
2023/03/27 04:26:26;;;;;;;10.65;5.18;;;3.50;86.10;;;;;;5032830;28;20076;-74
2023/03/27 04:28:53;;;;;;;11.07;4.78;;;3.40;86.30;;;;;;5032778;28;20540;-74
2023/03/27 04:31:18;;;;;;;15.52;5.35;;;3.40;86.40;;;;;;5032755;28;20029;-74
2023/03/27 04:33:45;;;;;;;16.65;6.03;;;3.40;86.30;;;;;;5032832;28;20363;-75
2023/03/27 04:36:16;;;;;;;12.35;5.22;;;3.40;86.30;;;;;;5032697;28;20026;-74
2023/03/27 04:38:41;;;;;;;11.52;5.80;;;3.50;86.10;;;;;;5032615;28;20084;-74
2023/03/27 04:41:07;;;;;;;13.77;5.15;;;3.30;85.80;;;;;;5034591;28;20025;-75
2023/03/27 04:43:38;;;;;;;16.73;6.07;;;3.20;85.90;;;;;;5032899;28;20040;-73
2023/03/27 04:46:05;;;;;;;13.30;5.50;;;3.00;86.20;;;;;;5032645;28;20045;-74
2023/03/27 04:48:31;;;;;;;10.88;5.80;;;3.00;86.70;;;;;;5031307;28;20057;-74
2023/03/27 04:50:57;;;;;;;14.95;6.43;;;2.80;86.60;;;;;;5032509;28;20465;-74
2023/03/27 04:53:23;;;;;;;21.50;6.63;;;2.80;87.20;;;;;;5032482;28;20041;-74
2023/03/27 04:55:51;;;;;;;19.55;5.88;;;2.70;87.50;;;;;;5032416;28;20026;-74
2023/03/27 04:58:17;;;;;;;14.10;6.22;;;2.60;87.30;;;;;;5032554;28;20030;-74
2023/03/27 05:00:49;;;;;;;15.25;6.40;;;2.60;87.80;;;;;;5032525;28;20096;-73
2023/03/27 05:03:17;;;;;;;17.35;6.25;;;2.60;87.90;;;;;;5032464;28;20017;-74
2023/03/27 05:05:46;;;;;;;18.83;7.10;;;2.60;88.00;;;;;;5032468;28;20021;-74
2023/03/27 05:08:11;;;;;;;15.63;5.80;;;2.60;88.10;;;;;;5032223;28;20494;-73
2023/03/27 05:10:37;;;;;;;11.93;4.80;;;2.70;87.40;;;;;;5034899;28;20111;-74
2023/03/27 05:13:03;;;;;;;16.70;5.18;;;2.60;86.10;;;;;;5035522;28;20030;-74
2023/03/27 05:15:31;;;;;;;15.88;4.40;;;2.50;85.70;;;;;;5036042;28;20055;-73
2023/03/27 05:17:57;;;;;;;16.63;4.07;;;2.40;85.00;;;;;;5035875;28;20025;-73
2023/03/27 05:20:23;;;;;;;13.48;3.38;;;2.30;83.70;;;;;;5035955;28;20018;-73
2023/03/27 05:22:53;;;;;;;15.73;3.40;;;2.30;82.40;;;;;;5035681;28;20052;-74
2023/03/27 05:25:19;;;;;;;17.02;4.45;;;2.30;81.10;;;;;;5035888;28;20378;-73
2023/03/27 05:27:46;;;;;;;11.50;3.42;;;2.30;81.20;;;;;;5035573;28;20040;-74
2023/03/27 05:30:20;;;;;;;13.73;3.28;;;2.30;79.40;;;;;;5035565;28;20017;-74
2023/03/27 05:32:47;;;;;;;9.60;2.80;;;2.20;78.60;;;;;;5035504;28;20034;-74
2023/03/27 05:35:17;;;;;;;18.05;2.97;;;2.20;78.50;;;;;;5035522;28;20018;-73
2023/03/27 05:37:48;;;;;;;12.35;3.42;;;2.20;77.60;;;;;;5035293;28;20036;-74
2023/03/27 05:40:14;;;;;;;10.32;2.90;;;2.20;77.10;;;;;;5035346;28;20075;-74
2023/03/27 05:42:44;;;;;;;14.18;3.30;;;2.20;77.40;;;;;;5035171;28;20104;-73
2023/03/27 05:45:11;;;;;;;17.52;3.65;;;2.20;76.20;;;;;;5035285;28;20029;-74
2023/03/27 05:47:57;;;;;;;11.90;2.80;;;2.20;76.90;;;;;;5035249;28;20144;-74
2023/03/27 05:50:31;;;;;;;18.15;3.78;;;2.30;76.70;;;;;;5035372;28;20057;-78
2023/03/27 05:53:01;;;;;;;13.68;3.05;;;3.10;90.60;;;;;;5035118;28;20037;-77
2023/03/27 05:55:27;;;;;;;9.35;3.10;;;3.90;90.70;;;;;;5035243;28;20030;-76
2023/03/27 05:57:53;;;;;;;10.90;2.63;;;4.40;85.80;;;;;;5033624;28;20033;-75
2023/03/27 06:00:24;;;;;;;8.38;2.20;;;4.70;77.60;;;;;;5035066;28;20069;-76
2023/03/27 06:02:53;;;;;;;10.77;2.67;;;5.00;68.70;;;;;;5033759;28;20029;-76
2023/03/27 06:05:19;;;;;;;12.90;2.60;;;5.30;69.70;;;;;;5035097;28;20067;-76
2023/03/27 06:07:46;;;;;;;11.20;2.17;;;5.50;67.90;;;;;;5033817;28;20037;-76
2023/03/27 06:10:15;;;;;;;7.38;2.33;;;5.80;65.80;;;;;;5035136;28;20104;-77
2023/03/27 06:12:42;;;;;;;16.88;2.72;;;6.00;64.70;;;;;;5034945;28;20033;-77
2023/03/27 06:15:09;;;;;;;11.93;3.00;;;6.20;62.80;;;;;;5034986;28;20024;-79
2023/03/27 06:17:38;;;;;;;16.00;3.13;;;6.20;61.10;;;;;;5033318;28;20022;-76
2023/03/27 06:20:14;;;;;;;9.20;2.65;;;6.40;61.10;;;;;;5034716;28;20028;-76
2023/03/27 06:22:51;;;;;;;12.00;2.80;;;6.40;60.30;;;;;;5033761;28;20034;-76
2023/03/27 06:25:19;;;;;;;8.35;2.45;;;6.50;61.00;;;;;;5034529;28;20049;-76
2023/03/27 06:27:46;;;;;;;15.95;3.83;;;6.20;58.70;;;;;;5034737;28;20017;-74
2023/03/27 06:30:16;;;;;;;18.60;5.10;;;5.90;59.40;;;;;;5034788;28;20040;-77
2023/03/27 06:32:56;;;;;;;14.88;5.18;;;5.60;60.40;;;;;;5034508;28;20061;-77
2023/03/27 06:35:22;;;;;;;12.52;3.53;;;5.10;62.30;;;;;;5034571;28;20026;-76
2023/03/27 06:37:49;;;;;;;13.98;3.72;;;4.70;62.40;;;;;;5034470;28;20022;-76
2023/03/27 06:40:21;;;;;;;14.95;3.35;;;4.30;63.00;;;;;;5034754;28;20481;-76
2023/03/27 06:42:57;;;;;;;9.82;2.72;;;4.00;64.80;;;;;;5034753;28;20032;-76
2023/03/27 06:45:26;;;;;;;10.70;2.83;;;3.80;65.80;;;;;;5034289;28;20109;-76
2023/03/27 06:48:03;;;;;;;14.60;3.22;;;3.70;66.50;;;;;;5034352;28;20521;-76
2023/03/27 06:50:30;;;;;;;10.60;2.70;;;3.50;66.80;;;;;;5034304;28;20068;-76
2023/03/27 06:52:56;;;;;;;15.98;3.25;;;3.40;67.40;;;;;;5034127;28;20116;-76
2023/03/27 06:55:24;;;;;;;13.60;4.40;;;3.30;67.60;;;;;;5034298;28;20056;-76
2023/03/27 06:57:52;;;;;;;11.40;5.47;;;3.20;68.60;;;;;;5032831;28;20030;-76
2023/03/27 07:00:21;;;;;;;14.10;3.20;;;3.20;68.60;;;;;;5034175;28;20017;-76
2023/03/27 07:02:48;;;;;;;17.83;5.60;;;3.20;68.70;;;;;;5033910;28;20071;-76
2023/03/27 07:05:15;;;;;;;14.13;4.07;;;3.10;68.70;;;;;;5034124;28;20032;-76
2023/03/27 07:07:42;;;;;;;14.20;4.18;;;3.20;70.30;;;;;;5033935;28;20083;-76
2023/03/27 07:10:09;;;;;;;13.52;3.80;;;3.10;67.90;;;;;;5034006;28;20381;-76
2023/03/27 07:12:35;;;;;;;13.43;5.63;;;3.10;67.50;;;;;;5033780;28;20053;-75
2023/03/27 07:15:01;;;;;;;15.98;4.93;;;3.10;68.10;;;;;;5033853;28;20489;-74
2023/03/27 07:17:26;;;;;;;12.18;4.43;;;3.00;68.30;;;;;;5033691;28;20382;-74
2023/03/27 07:19:52;;;;;;;15.13;4.72;;;3.10;68.40;;;;;;5033907;28;20028;-74
2023/03/27 07:22:18;;;;;;;23.30;6.10;;;3.10;68.10;;;;;;5033895;28;20071;-74
2023/03/27 07:24:44;;;;;;;18.10;4.90;;;3.00;68.40;;;;;;5033573;28;20022;-75
2023/03/27 07:27:10;;;;;;;19.08;5.80;;;2.90;69.20;;;;;;5033631;28;20083;-76
2023/03/27 07:29:36;;;;;;;15.85;5.55;;;3.00;69.20;;;;;;5033921;28;20033;-82
2023/03/27 07:32:03;;;;;;;14.75;4.10;;;2.90;69.40;;;;;;5032681;28;20034;-74
2023/03/27 07:34:29;;;;;;;17.08;3.95;;;2.80;69.60;;;;;;5033257;28;20051;-77
2023/03/27 07:36:56;;;;;;;14.02;3.90;;;2.90;70.30;;;;;;5033331;28;20437;-75
2023/03/27 07:39:22;;;;;;;12.93;3.33;;;2.90;70.80;;;;;;5033115;28;20506;-75
2023/03/27 07:41:48;;;;;;;15.77;4.40;;;2.90;69.60;;;;;;5033447;28;20124;-74
2023/03/27 07:44:13;;;;;;;15.27;3.90;;;3.10;70.90;;;;;;5032968;28;20096;-74
2023/03/27 07:46:40;;;;;;;15.20;3.60;;;3.70;76.80;;;;;;5032220;28;20030;-75
2023/03/27 07:49:07;;;;;;;12.10;3.42;;;3.80;69.00;;;;;;5033088;28;20032;-75
2023/03/27 07:51:33;;;;;;;13.00;3.65;;;3.80;68.00;;;;;;5032935;28;20057;-74
2023/03/27 07:54:03;;;;;;;12.15;2.95;;;3.80;69.20;;;;;;5033164;28;20076;-75
2023/03/27 07:56:32;;;;;;;16.23;4.05;;;3.70;67.70;;;;;;5032981;28;20021;-74
2023/03/27 07:58:57;;;;;;;10.43;2.60;;;3.70;66.90;;;;;;5032271;28;20471;-73
2023/03/27 08:01:26;;;;;;;15.05;3.50;;;3.60;67.50;;;;;;5030331;28;20064;-73
2023/03/27 08:03:52;;;;;;;16.08;3.60;;;3.70;67.70;;;;;;5032131;28;20056;-74
2023/03/27 08:06:19;;;;;;;12.05;3.20;;;3.60;65.90;;;;;;5032822;28;20493;-74
2023/03/27 08:08:44;;;;;;;11.18;3.20;;;3.60;66.40;;;;;;5032927;28;20021;-75
2023/03/27 08:11:13;;;;;;;16.98;3.45;;;3.70;67.20;;;;;;5032183;28;20501;-75
2023/03/27 08:13:39;;;;;;;11.63;2.92;;;3.90;65.90;;;;;;5031589;28;20095;-75
2023/03/27 08:16:09;;;;;;;14.77;3.47;;;4.10;66.30;;;;;;5032361;28;20113;-75
2023/03/27 08:18:35;;;;;;;13.25;3.85;;;4.30;65.80;;;;;;5032908;28;20110;-73
2023/03/27 08:21:02;;;;;;;13.68;3.90;;;4.40;63.30;;;;;;5032776;28;20032;-73
2023/03/27 08:23:29;;;;;;;16.55;3.45;;;4.30;63.50;;;;;;5032672;28;20528;-73
2023/03/27 08:25:59;;;;;;;11.57;3.42;;;4.30;63.60;;;;;;5032670;28;20030;-74
2023/03/27 08:28:29;;;;;;;16.20;3.20;;;4.20;63.10;;;;;;5032515;28;20075;-73
2023/03/27 08:30:55;;;;;;;17.77;3.47;;;4.20;64.20;;;;;;5030492;28;20025;-75
2023/03/27 08:33:21;;;;;;;11.60;3.10;;;4.30;64.70;;;;;;5031328;28;20037;-74
2023/03/27 08:35:50;;;;;;;13.27;3.22;;;4.30;62.90;;;;;;5031527;28;20470;-75
2023/03/27 08:38:16;;;;;;;15.30;3.60;;;4.50;63.90;;;;;;5032413;28;20049;-74
2023/03/27 08:40:48;;;;;;;13.85;3.15;;;4.70;63.90;;;;;;5032387;28;20022;-76
2023/03/27 08:43:20;;;;;;;9.63;2.83;;;4.80;63.20;;;;;;5032391;28;20033;-77
2023/03/27 08:45:53;;;;;;;13.73;3.80;;;5.00;64.10;;;;;;5035396;28;20021;-75
2023/03/27 08:48:24;;;;;;;16.67;3.83;;;5.00;62.60;;;;;;5036457;28;20021;-74
2023/03/27 08:50:58;;;;;;;11.95;3.42;;;5.00;62.30;;;;;;5036302;28;20024;-75
2023/03/27 08:53:42;;;;;;;12.63;3.17;;;4.90;61.90;;;;;;5036089;28;20033;-75
2023/03/27 08:56:13;;;;;;;13.20;3.72;;;4.80;62.50;;;;;;5036700;28;20050;-74
2023/03/27 08:58:40;;;;;;;10.38;2.90;;;4.70;63.50;;;;;;5035112;28;20021;-75
2023/03/27 09:01:29;;;;;;;14.30;2.63;;;4.50;62.90;;;;;;5036102;28;20025;-75
2023/03/27 09:04:02;;;;;;;13.77;3.17;;;4.30;61.90;;;;;;5036137;28;20101;-75
2023/03/27 09:07:05;;;;;;;11.05;2.47;;;4.00;62.70;;;;;;5035852;28;20026;-75
2023/03/27 09:09:51;;;;;;;11.45;3.10;;;3.80;61.70;;;;;;5024786;28;20037;-75
2023/03/27 09:12:56;;;;;;;12.18;2.30;;;3.60;61.00;;;;;;5035743;28;20438;-76
2023/03/27 09:15:35;;;;;;;16.63;2.90;;;3.70;61.20;;;;;;5024267;28;20037;-76
2023/03/27 09:18:24;;;;;;;13.57;2.33;;;3.80;60.80;;;;;;5033284;28;20083;-75
2023/03/27 09:20:55;;;;;;;7.75;2.28;;;3.80;60.20;;;;;;5034594;28;20018;-74
2023/03/27 09:23:35;;;;;;;11.70;2.80;;;3.90;60.30;;;;;;5035815;28;20057;-75
2023/03/27 09:26:09;;;;;;;11.90;2.55;;;4.10;61.20;;;;;;5035774;28;20032;-75
2023/03/27 09:28:56;;;;;;;13.65;2.83;;;4.30;59.50;;;;;;5035772;28;20036;-73
2023/03/27 09:31:27;;;;;;;13.23;2.35;;;4.60;57.70;;;;;;5035454;28;20482;-74
2023/03/27 09:33:54;;;;;;;9.93;2.15;;;5.00;56.10;;;;;;5032868;28;20069;-73
2023/03/27 09:36:20;;;;;;;9.73;2.25;;;5.20;56.00;;;;;;5035100;28;20095;-74
2023/03/27 09:38:50;;;;;;;9.25;2.65;;;5.50;55.30;;;;;;5034711;28;20083;-75
2023/03/27 09:41:42;;;;;;;15.07;4.38;;;5.80;52.80;;;;;;5035028;28;20018;-75
2023/03/27 09:44:19;;;;;;;7.55;2.20;;;6.10;52.50;;;;;;5034909;28;20029;-74
2023/03/27 09:46:48;;;;;;;10.25;2.30;;;6.20;50.80;;;;;;5034422;28;20075;-75
2023/03/27 09:49:16;;;;;;;10.88;2.55;;;6.20;50.30;;;;;;5034719;28;20056;-76
2023/03/27 09:51:57;;;;;;;13.13;3.53;;;6.10;50.20;;;;;;5034945;28;20475;-75
2023/03/27 09:54:27;;;;;;;12.90;2.47;;;5.90;50.00;;;;;;5034904;28;20116;-74
2023/03/27 09:57:02;;;;;;;7.43;2.08;;;5.40;49.80;;;;;;5033372;28;20014;-75
2023/03/27 09:59:32;;;;;;;9.80;2.33;;;5.20;50.80;;;;;;5015051;28;20033;-74
2023/03/27 10:02:15;;;;;;;10.70;1.95;;;5.10;49.00;;;;;;5015010;28;20030;-74
2023/03/27 10:05:01;;;;;;;9.30;2.17;;;5.30;49.10;;;;;;5015096;28;20040;-75
2023/03/27 10:07:27;;;;;;;9.52;2.25;;;5.80;48.30;;;;;;5014786;28;20061;-75
2023/03/27 10:10:07;;;;;;;9.93;2.83;;;6.40;48.50;;;;;;5014987;28;20446;-75
2023/03/27 10:12:35;;;;;;;7.93;2.15;;;7.10;44.80;;;;;;5014614;28;20045;-77
2023/03/27 10:15:03;;;;;;;20.27;3.63;;;7.30;43.90;;;;;;5014819;28;20026;-79
2023/03/27 10:17:39;;;;;;;11.27;2.53;;;7.80;44.30;;;;;;5015037;28;20021;-80
2023/03/27 10:20:12;;;;;;;5.35;1.88;;;8.50;51.30;;;;;;5015086;28;20109;-76
2023/03/27 10:22:49;;;;;;;7.95;1.92;;;8.60;47.30;;;;;;5014671;28;20450;-76
2023/03/27 10:25:29;;;;;;;12.95;2.22;;;8.60;43.60;;;;;;5014695;28;20022;-77
2023/03/27 10:28:21;;;;;;;5.22;1.67;;;7.90;43.20;;;;;;5018063;28;20100;-77
2023/03/27 10:30:58;;;;;;;10.48;2.42;;;7.20;42.70;;;;;;5034378;28;20032;-75
2023/03/27 10:33:32;;;;;;;8.20;1.92;;;6.70;42.80;;;;;;5034497;28;20045;-76
2023/03/27 10:35:58;;;;;;;8.32;2.05;;;6.60;41.90;;;;;;5032978;28;20075;-76
2023/03/27 10:38:26;;;;;;;6.90;2.08;;;6.50;41.40;;;;;;5034063;28;20489;-75
2023/03/27 10:40:53;;;;;;;9.27;2.30;;;6.20;42.90;;;;;;5034130;28;20049;-76
2023/03/27 10:43:36;;;;;;;6.18;1.85;;;6.10;44.50;;;;;;5034205;28;20467;-76
2023/03/27 10:46:06;;;;;;;5.70;1.70;;;6.60;44.90;;;;;;5032386;28;20033;-76
2023/03/27 10:48:56;;;;;;;5.30;1.88;;;7.30;40.70;;;;;;5034116;28;20112;-76
2023/03/27 10:51:24;;;;;;;7.20;1.48;;;8.10;38.60;;;;;;5033705;28;20036;-76
2023/03/27 10:53:54;;;;;;;6.10;1.63;;;8.30;38.60;;;;;;5032559;28;20029;-77
2023/03/27 10:56:39;;;;;;;5.15;1.70;;;7.90;36.30;;;;;;5035720;28;20406;-76
2023/03/27 10:59:17;;;;;;;6.45;1.55;;;7.80;38.20;;;;;;5033588;28;20079;-76
2023/03/27 11:01:48;;;;;;;7.80;1.95;;;7.90;37.20;;;;;;5034007;28;20526;-77
2023/03/27 11:04:17;;;;;;;6.72;2.40;;;8.00;37.40;;;;;;5034125;28;20022;-76
2023/03/27 11:06:46;;;;;;;6.07;2.08;;;8.20;36.70;;;;;;5033894;28;20059;-77
2023/03/27 11:09:28;;;;;;;5.78;2.25;;;8.20;36.50;;;;;;5033801;28;20033;-76
2023/03/27 11:12:00;;;;;;;7.35;1.95;;;8.60;37.20;;;;;;5034059;28;20113;-76
2023/03/27 11:14:35;;;;;;;6.78;1.38;;;8.50;36.60;;;;;;5034508;28;20018;-76
2023/03/27 11:17:05;;;;;;;6.78;1.40;;;8.30;35.30;;;;;;5037242;28;20072;-74
2023/03/27 11:19:45;;;;;;;5.78;1.65;;;8.60;33.80;;;;;;5033806;28;20211;-76
2023/03/27 11:22:15;;;;;;;4.68;1.58;;;8.90;34.20;;;;;;5032881;28;20501;-76
2023/03/27 11:24:59;;;;;;;6.53;1.50;;;9.00;34.80;;;;;;5033827;28;20048;-76
2023/03/27 11:27:38;;;;;;;4.40;1.27;;;8.40;34.70;;;;;;5032504;28;20429;-78
2023/03/27 11:30:07;;;;;;;4.90;1.67;;;7.70;35.40;;;;;;5032737;28;20021;-75
2023/03/27 11:32:57;;;;;;;6.68;2.28;;;7.40;35.20;;;;;;5033783;28;20072;-76
2023/03/27 11:35:27;;;;;;;6.07;1.77;;;7.60;35.10;;;;;;5033169;28;20475;-74
2023/03/27 11:37:59;;;;;;;5.30;1.48;;;8.20;34.50;;;;;;5033234;28;20029;-76
2023/03/27 11:40:34;;;;;;;4.80;1.10;;;8.90;32.20;;;;;;5033365;28;20025;-76
2023/03/27 11:43:00;;;;;;;5.03;1.30;;;8.80;29.50;;;;;;5033349;28;20026;-77
2023/03/27 11:45:30;;;;;;;9.13;2.10;;;8.70;29.30;;;;;;5033646;28;20268;-76
2023/03/27 11:48:00;;;;;;;6.00;1.63;;;8.40;31.70;;;;;;5032035;28;20025;-76
2023/03/27 11:50:40;;;;;;;4.10;1.52;;;7.90;35.10;;;;;;5033600;28;20030;-77
2023/03/27 11:53:18;;;;;;;4.15;1.17;;;7.70;35.50;;;;;;5033747;28;20025;-75
2023/03/27 11:55:55;;;;;;;4.78;1.27;;;7.20;36.00;;;;;;5033722;28;20058;-77
2023/03/27 11:58:36;;;;;;;5.57;1.48;;;7.10;35.60;;;;;;5033415;28;20029;-76
2023/03/27 12:01:14;;;;;;;9.98;1.70;;;7.60;36.20;;;;;;5033324;28;20079;-77
2023/03/27 12:04:01;;;;;;;2.67;1.17;;;8.20;33.80;;;;;;5033408;28;20034;-76
2023/03/27 12:06:39;;;;;;;5.53;1.70;;;9.10;33.10;;;;;;5033229;28;20021;-76
2023/03/27 12:09:34;;;;;;;8.38;1.67;;;9.50;33.30;;;;;;5033337;28;20021;-76
2023/03/27 12:12:10;;;;;;;3.33;1.00;;;10.10;33.60;;;;;;5033318;28;20072;-76
2023/03/27 12:15:00;;;;;;;4.65;1.35;;;10.10;28.80;;;;;;5032995;28;20049;-77
2023/03/27 12:17:41;;;;;;;4.57;1.50;;;9.60;28.90;;;;;;5032233;28;20030;-76
2023/03/27 12:20:31;;;;;;;6.15;1.08;;;9.10;29.50;;;;;;5032321;28;20021;-77
2023/03/27 12:23:17;;;;;;;4.65;1.23;;;8.80;30.30;;;;;;5032792;28;20114;-76
2023/03/27 12:26:02;;;;;;;4.70;1.20;;;8.50;31.00;;;;;;5032604;28;20036;-78
2023/03/27 12:28:52;;;;;;;6.07;1.60;;;8.10;33.00;;;;;;5031184;28;20120;-77
2023/03/27 12:31:26;;;;;;;7.00;1.40;;;8.50;34.00;;;;;;5032887;28;20097;-77
2023/03/27 12:34:01;;;;;;;5.72;1.48;;;9.10;32.50;;;;;;5032817;28;20029;-75
2023/03/27 12:36:33;;;;;;;6.88;1.48;;;9.20;30.60;;;;;;5036023;28;20021;-77
2023/03/27 12:38:59;;;;;;;5.00;1.05;;;9.70;29.00;;;;;;5032530;28;20577;-75
2023/03/27 12:41:29;;;;;;;5.03;1.20;;;9.90;28.20;;;;;;5032744;28;20071;-75
2023/03/27 12:43:57;;;;;;;3.95;1.23;;;9.90;29.20;;;;;;5032836;28;20033;-74
2023/03/27 12:46:23;;;;;;;4.05;1.08;;;9.80;29.40;;;;;;5032634;28;20067;-76
2023/03/27 12:48:58;;;;;;;8.27;1.20;;;9.50;29.80;;;;;;5031133;28;20029;-74
2023/03/27 12:51:47;;;;;;;4.60;0.85;;;9.20;31.20;;;;;;5032115;28;20021;-76
2023/03/27 12:54:21;;;;;;;4.03;1.15;;;9.30;31.10;;;;;;5032338;28;20030;-78
2023/03/27 12:56:50;;;;;;;3.55;0.90;;;9.20;30.10;;;;;;5030804;28;20025;-76
2023/03/27 12:59:22;;;;;;;3.38;1.13;;;9.60;29.50;;;;;;5032639;28;20108;-77
2023/03/27 13:01:54;;;;;;;3.72;1.00;;;10.20;28.50;;;;;;5032739;28;20075;-76
2023/03/27 13:04:41;;;;;;;5.13;1.10;;;10.00;26.70;;;;;;5031314;28;20037;-76
2023/03/27 13:07:21;;;;;;;5.55;1.45;;;9.70;29.10;;;;;;5032595;28;20084;-77
2023/03/27 13:10:16;;;;;;;3.85;1.08;;;9.20;28.70;;;;;;5031153;28;20030;-77
2023/03/27 13:13:10;;;;;;;8.88;1.83;;;8.60;31.20;;;;;;5032108;28;20486;-76
2023/03/27 13:15:57;;;;;;;3.60;1.13;;;8.50;30.90;;;;;;5032339;28;20021;-76
2023/03/27 13:18:48;;;;;;;4.10;1.15;;;8.50;31.30;;;;;;5031054;28;20143;-76
2023/03/27 13:21:33;;;;;;;5.25;0.90;;;8.30;32.30;;;;;;5032512;28;20021;-77